createdAt,value
2017-10-20T00:01:56.545Z,13.03
2017-10-20T00:04:24.096Z,21.20
2017-10-20T00:06:51.700Z,15.17
2017-10-20T00:09:19.204Z,16.40
2017-10-20T00:11:46.725Z,17.57
2017-10-20T00:14:14.312Z,18.93
2017-10-20T00:16:42.590Z,17.43
2017-10-20T00:19:10.192Z,14.63
2017-10-20T00:21:37.708Z,13.93
2017-10-20T00:24:05.255Z,17.20
2017-10-20T00:26:32.783Z,15.13
2017-10-20T00:29:00.300Z,26.70
2017-10-20T00:31:27.854Z,14.43
2017-10-20T00:33:55.456Z,15.77
2017-10-20T00:36:23.052Z,18.40
2017-10-20T00:38:50.564Z,15.70
2017-10-20T00:41:18.886Z,16.73
2017-10-20T00:43:47.193Z,14.33
2017-10-20T00:46:14.757Z,15.93
2017-10-20T00:48:42.336Z,16.27
2017-10-20T00:51:09.848Z,15.67
2017-10-20T00:53:38.168Z,15.80
2017-10-20T00:56:05.724Z,14.50
2017-10-20T00:58:33.772Z,15.93
2017-10-20T01:01:01.333Z,16.57
2017-10-20T01:03:28.863Z,18.63
2017-10-20T01:05:56.472Z,18.87
2017-10-20T01:08:24.000Z,20.30
2017-10-20T01:10:51.557Z,17.57
2017-10-20T01:13:19.157Z,15.80
2017-10-20T01:15:47.204Z,19.47
2017-10-20T01:18:14.761Z,20.20
2017-10-20T01:20:42.316Z,23.17
2017-10-20T01:23:09.847Z,17.90
2017-10-20T01:25:37.397Z,15.33
2017-10-20T01:28:04.934Z,17.00
2017-10-20T01:30:33.432Z,17.93
2017-10-20T01:33:01.065Z,19.97
2017-10-20T01:35:28.575Z,18.60
2017-10-20T01:37:56.901Z,20.10
2017-10-20T01:40:24.460Z,18.93
2017-10-20T01:42:52.108Z,15.77
2017-10-20T01:45:19.623Z,15.77
2017-10-20T01:47:47.236Z,17.70
2017-10-20T01:50:14.827Z,16.17
2017-10-20T01:52:42.404Z,15.90
2017-10-20T01:55:10.353Z,21.30
2017-10-20T01:57:37.883Z,14.80
2017-10-20T02:00:05.561Z,16.47
2017-10-20T02:02:33.142Z,16.30
2017-10-20T02:05:00.662Z,15.73
2017-10-20T02:07:28.222Z,14.90
2017-10-20T02:09:55.832Z,20.03
2017-10-20T02:12:23.398Z,20.13
2017-10-20T02:14:50.953Z,17.77
2017-10-20T02:17:18.472Z,17.73
2017-10-20T02:19:46.032Z,14.43
2017-10-20T02:22:13.573Z,10.60
2017-10-20T02:24:41.152Z,17.70
2017-10-20T02:27:08.738Z,13.90
2017-10-20T02:29:36.296Z,15.30
2017-10-20T02:32:03.982Z,16.60
2017-10-20T02:34:31.493Z,16.03
2017-10-20T02:36:59.069Z,19.60
2017-10-20T02:39:26.648Z,14.53
2017-10-20T02:41:54.254Z,15.27
2017-10-20T02:44:21.779Z,14.73
2017-10-20T02:46:49.328Z,19.73
2017-10-20T02:49:16.981Z,18.60
2017-10-20T02:51:44.548Z,16.60
2017-10-20T02:54:12.056Z,19.30
2017-10-20T02:56:39.622Z,20.13
2017-10-20T02:59:07.153Z,18.23
2017-10-20T03:01:35.459Z,28.23
2017-10-20T03:04:03.045Z,17.60
2017-10-20T03:06:30.614Z,19.50
2017-10-20T03:08:58.179Z,19.30
2017-10-20T03:11:25.794Z,20.10
2017-10-20T03:13:53.310Z,24.20
2017-10-20T03:16:21.644Z,20.70
2017-10-20T03:18:49.445Z,19.07
2017-10-20T03:21:16.997Z,21.90
2017-10-20T03:23:44.900Z,18.73
2017-10-20T03:26:12.920Z,23.30
2017-10-20T03:28:40.460Z,20.00
2017-10-20T03:31:08.011Z,19.40
2017-10-20T03:33:35.547Z,19.67
2017-10-20T03:36:03.079Z,21.77
2017-10-20T03:38:30.634Z,20.80
2017-10-20T03:40:58.188Z,18.23
2017-10-20T03:43:25.716Z,21.37
2017-10-20T03:45:53.272Z,24.10
2017-10-20T03:48:21.838Z,24.70
2017-10-20T03:50:49.348Z,23.07
2017-10-20T03:53:16.906Z,21.13
2017-10-20T03:55:44.449Z,20.83
2017-10-20T03:58:11.972Z,20.53
2017-10-20T04:00:39.552Z,21.47
2017-10-20T04:03:07.081Z,26.70
2017-10-20T04:05:34.593Z,24.13
2017-10-20T04:08:02.133Z,26.20
2017-10-20T04:10:29.668Z,21.97
2017-10-20T04:12:57.292Z,24.50
2017-10-20T04:15:24.805Z,23.50
2017-10-20T04:17:52.364Z,20.80
2017-10-20T04:20:20.020Z,27.50
2017-10-20T04:22:47.532Z,24.33
2017-10-20T04:25:15.108Z,20.67
2017-10-20T04:27:42.632Z,22.57
2017-10-20T04:30:10.191Z,24.90
2017-10-20T04:32:37.757Z,20.40
2017-10-20T04:35:05.329Z,29.73
2017-10-20T04:37:32.849Z,21.27
2017-10-20T04:40:00.400Z,23.87
2017-10-20T04:42:27.938Z,19.73
2017-10-20T04:44:55.509Z,20.50
2017-10-20T04:47:23.015Z,24.03
2017-10-20T04:49:50.559Z,24.80
2017-10-20T04:52:18.129Z,22.83
2017-10-20T04:54:45.736Z,27.00
2017-10-20T04:57:13.256Z,25.73
2017-10-20T04:59:40.873Z,21.87
2017-10-20T05:02:08.446Z,27.30
2017-10-20T05:04:36.291Z,24.90
2017-10-20T05:07:03.829Z,21.73
2017-10-20T05:09:31.384Z,21.27
2017-10-20T05:11:59.704Z,23.07
2017-10-20T05:14:27.361Z,23.93
2017-10-20T05:16:54.981Z,30.23
2017-10-20T05:19:23.277Z,27.90
2017-10-20T05:21:50.776Z,27.23
2017-10-20T05:24:18.321Z,25.50
2017-10-20T05:26:45.867Z,21.10
2017-10-20T05:29:13.409Z,25.03
2017-10-20T05:31:40.905Z,29.43
2017-10-20T05:34:08.449Z,24.73
2017-10-20T05:36:37.161Z,23.87
2017-10-20T05:39:04.678Z,23.63
2017-10-20T05:41:32.294Z,24.43
2017-10-20T05:43:59.889Z,27.23
2017-10-20T05:46:27.398Z,28.90
2017-10-20T05:48:55.030Z,29.30
2017-10-20T05:51:22.543Z,29.40
2017-10-20T05:53:50.828Z,29.53
2017-10-20T05:56:18.389Z,27.60
2017-10-20T05:58:46.689Z,27.17
2017-10-20T06:01:14.297Z,24.80
2017-10-20T06:03:41.800Z,26.13
2017-10-20T06:06:09.308Z,26.23
2017-10-20T06:08:36.864Z,27.43
2017-10-20T06:11:04.440Z,24.33
2017-10-20T06:13:31.984Z,23.03
2017-10-20T06:15:59.519Z,32.67
2017-10-20T06:18:27.137Z,24.10
2017-10-20T06:20:54.692Z,18.27
2017-10-20T06:23:22.248Z,21.50
2017-10-20T06:25:50.559Z,22.50
2017-10-20T06:28:18.088Z,19.60
2017-10-20T06:30:46.484Z,21.00
2017-10-20T06:33:14.088Z,21.43
2017-10-20T06:35:41.594Z,15.70
2017-10-20T06:38:09.173Z,15.60
2017-10-20T06:40:36.752Z,13.47
2017-10-20T06:43:04.342Z,11.70
2017-10-20T06:45:31.855Z,14.87
2017-10-20T06:47:59.459Z,13.17
2017-10-20T06:50:26.968Z,12.23
2017-10-20T06:52:54.525Z,20.77
2017-10-20T06:55:22.095Z,16.97
2017-10-20T06:57:49.757Z,14.97
2017-10-20T07:00:17.346Z,14.77
2017-10-20T07:02:44.880Z,16.10
2017-10-20T07:05:13.279Z,19.80
2017-10-20T07:07:41.458Z,16.57
2017-10-20T07:10:09.871Z,16.93
2017-10-20T07:12:37.436Z,19.03
2017-10-20T07:15:05.117Z,14.80
2017-10-20T07:17:33.472Z,14.83
2017-10-20T07:23:13.833Z,17.43
2017-10-20T07:25:41.454Z,15.20
2017-10-20T07:28:09.012Z,15.77
2017-10-20T07:30:36.610Z,16.10
2017-10-20T07:33:04.219Z,18.20
2017-10-20T07:35:31.727Z,14.70
2017-10-20T07:37:59.354Z,15.77
2017-10-20T07:40:26.917Z,14.57
2017-10-20T07:42:54.491Z,18.13
2017-10-20T07:45:22.081Z,13.70
2017-10-20T07:47:50.299Z,14.60
2017-10-20T07:50:18.015Z,17.10
2017-10-20T07:52:45.578Z,12.60
2017-10-20T07:55:13.178Z,21.43
2017-10-20T07:57:40.794Z,18.50
2017-10-20T08:00:08.565Z,16.27
2017-10-20T08:02:36.292Z,14.83
2017-10-20T08:05:03.873Z,18.30
2017-10-20T08:07:31.509Z,14.67
2017-10-20T08:09:59.129Z,17.10
2017-10-20T08:12:26.701Z,14.17
2017-10-20T08:14:55.133Z,19.80
2017-10-20T08:17:22.689Z,17.70
2017-10-20T08:19:50.263Z,14.33
2017-10-20T08:22:17.832Z,21.60
2017-10-20T08:24:45.372Z,15.60
2017-10-20T08:27:12.966Z,14.10
2017-10-20T08:29:40.524Z,14.50
2017-10-20T08:32:08.880Z,16.60
2017-10-20T08:34:36.625Z,17.13
2017-10-20T08:37:04.319Z,15.33
2017-10-20T08:39:31.921Z,19.40
2017-10-20T08:41:59.529Z,13.60
2017-10-20T08:44:27.240Z,13.87
2017-10-20T08:46:54.934Z,15.93
2017-10-20T08:49:22.507Z,14.23
2017-10-20T08:51:50.128Z,16.77
2017-10-20T08:54:18.403Z,12.70
2017-10-20T08:56:45.990Z,12.03
2017-10-20T08:59:13.502Z,15.13
2017-10-20T09:01:41.130Z,16.17
2017-10-20T09:04:08.694Z,18.07
2017-10-20T09:06:36.236Z,15.50
2017-10-20T09:09:03.793Z,15.20
2017-10-20T09:11:31.352Z,17.10
2017-10-20T09:13:58.868Z,17.33
2017-10-20T09:16:26.432Z,16.20
2017-10-20T09:18:54.000Z,18.73
2017-10-20T09:21:21.519Z,13.60
2017-10-20T09:23:49.075Z,13.77
2017-10-20T09:26:16.689Z,12.73
2017-10-20T09:28:44.257Z,16.43
2017-10-20T09:31:11.908Z,12.13
2017-10-20T09:33:39.520Z,14.70
2017-10-20T09:36:07.082Z,12.00
2017-10-20T09:38:35.348Z,13.90
2017-10-20T09:41:02.871Z,14.37
2017-10-20T09:43:30.415Z,13.43
2017-10-20T09:45:57.935Z,15.03
2017-10-20T09:48:25.546Z,14.30
2017-10-20T09:50:53.069Z,19.17
2017-10-20T09:53:21.371Z,14.33
2017-10-20T09:55:48.926Z,21.60
2017-10-20T09:58:16.436Z,13.77
2017-10-20T10:00:44.012Z,17.10
2017-10-20T10:03:12.440Z,15.03
2017-10-20T10:05:39.992Z,15.50
2017-10-20T10:08:07.512Z,15.90
2017-10-20T10:10:35.781Z,14.03
2017-10-20T10:13:03.348Z,15.00
2017-10-20T10:15:30.874Z,18.23
2017-10-20T10:17:58.462Z,15.60
2017-10-20T10:20:26.013Z,13.83
2017-10-20T10:22:53.626Z,13.97
2017-10-20T10:25:21.148Z,19.63
2017-10-20T10:27:49.565Z,12.10
2017-10-20T10:30:17.118Z,15.23
2017-10-20T10:32:44.717Z,11.47
2017-10-20T10:35:12.311Z,16.50
2017-10-20T10:37:39.876Z,9.57
2017-10-20T10:40:07.421Z,11.70
2017-10-20T10:42:35.699Z,9.40
2017-10-20T10:45:03.257Z,11.60
2017-10-20T10:47:31.569Z,10.40
2017-10-20T10:49:59.122Z,8.57
2017-10-20T10:52:26.619Z,11.50
2017-10-20T10:54:54.153Z,12.27
2017-10-20T10:57:21.719Z,9.50
2017-10-20T10:59:49.718Z,7.97
2017-10-20T11:02:17.599Z,8.70
2017-10-20T11:04:45.938Z,15.13
2017-10-20T11:07:25.321Z,8.77
2017-10-20T11:10:04.447Z,7.50
2017-10-20T11:12:43.194Z,7.93
2017-10-20T11:15:10.742Z,7.13
2017-10-20T11:17:38.245Z,9.97
2017-10-20T11:20:05.816Z,11.43
2017-10-20T11:22:33.327Z,7.90
2017-10-20T11:25:01.595Z,10.23
2017-10-20T11:27:29.914Z,8.60
2017-10-20T11:29:57.473Z,8.60
2017-10-20T11:32:25.017Z,5.90
2017-10-20T11:34:52.632Z,5.30
2017-10-20T11:37:20.178Z,7.47
2017-10-20T11:39:47.909Z,5.90
2017-10-20T11:42:15.408Z,5.60
2017-10-20T11:44:42.956Z,6.43
2017-10-20T11:47:10.521Z,5.37
2017-10-20T11:49:38.057Z,9.70
2017-10-20T11:52:05.638Z,4.00
2017-10-20T11:54:33.187Z,6.30
2017-10-20T11:57:00.704Z,5.77
2017-10-20T11:59:28.268Z,5.10
2017-10-20T12:01:55.787Z,4.73
2017-10-20T12:04:23.308Z,6.17
2017-10-20T12:06:50.861Z,5.30
2017-10-20T12:09:18.372Z,4.43
2017-10-20T12:11:45.931Z,4.87
2017-10-20T12:14:13.515Z,5.40
2017-10-20T12:16:41.136Z,6.30
2017-10-20T12:19:08.646Z,7.20
2017-10-20T12:21:36.288Z,7.20
2017-10-20T12:24:03.791Z,4.77
2017-10-20T12:26:31.327Z,5.50
2017-10-20T12:28:58.861Z,5.30
2017-10-20T12:31:27.176Z,7.53
2017-10-20T12:33:54.718Z,7.20
2017-10-20T12:36:22.221Z,4.37
2017-10-20T12:38:49.768Z,4.90
2017-10-20T12:41:17.273Z,4.13
2017-10-20T12:43:44.826Z,4.80
2017-10-20T12:46:13.085Z,5.63
2017-10-20T12:48:40.613Z,4.33
2017-10-20T12:51:08.213Z,4.47
2017-10-20T12:53:35.721Z,8.30
2017-10-20T12:56:03.282Z,4.20
2017-10-20T12:58:30.809Z,4.60
2017-10-20T13:00:58.369Z,4.27
2017-10-20T13:03:25.877Z,4.70
2017-10-20T13:05:53.384Z,4.67
2017-10-20T13:08:20.915Z,5.53
2017-10-20T13:10:48.438Z,6.03
2017-10-20T13:13:16.001Z,4.50
2017-10-20T13:15:44.072Z,4.07
2017-10-20T13:18:11.826Z,4.13
2017-10-20T13:20:39.328Z,4.53
2017-10-20T13:23:06.844Z,5.77
2017-10-20T13:25:34.500Z,5.50
2017-10-20T13:28:02.029Z,8.40
2017-10-20T13:30:30.385Z,7.70
2017-10-20T13:32:57.886Z,10.60
2017-10-20T13:35:25.461Z,6.70
2017-10-20T13:37:52.972Z,5.17
2017-10-20T13:40:21.637Z,7.30
2017-10-20T13:42:49.178Z,5.33
2017-10-20T13:45:16.688Z,6.60
2017-10-20T13:47:44.991Z,4.80
2017-10-20T13:50:12.624Z,5.77
2017-10-20T13:52:40.979Z,6.23
2017-10-20T13:55:08.526Z,4.90
2017-10-20T13:57:36.084Z,7.03
2017-10-20T14:00:03.634Z,6.73
2017-10-20T14:02:31.215Z,5.50
2017-10-20T14:04:58.806Z,5.03
2017-10-20T14:07:26.413Z,7.50
2017-10-20T14:09:53.919Z,6.53
2017-10-20T14:12:22.209Z,5.97
2017-10-20T14:14:49.774Z,5.10
2017-10-20T14:17:17.281Z,4.90
2017-10-20T14:19:44.785Z,4.80
2017-10-20T14:22:12.367Z,5.87
2017-10-20T14:27:09.840Z,5.13
2017-10-20T14:29:37.386Z,4.60
2017-10-20T14:32:04.912Z,6.40
2017-10-20T14:34:33.240Z,4.60
2017-10-20T14:37:00.785Z,4.10
2017-10-20T14:39:28.338Z,4.47
2017-10-20T14:41:55.879Z,4.90
2017-10-20T14:44:23.429Z,4.87
2017-10-20T14:46:51.701Z,6.60
2017-10-20T14:49:19.241Z,5.53
2017-10-20T14:51:46.800Z,4.30
2017-10-20T14:54:14.415Z,4.70
2017-10-20T14:56:41.918Z,4.90
2017-10-20T14:59:09.480Z,5.33
2017-10-20T15:01:37.154Z,5.43
2017-10-20T15:04:04.657Z,4.53
2017-10-20T15:06:32.216Z,4.60
2017-10-20T15:08:59.805Z,4.70
2017-10-20T15:11:27.317Z,5.47
2017-10-20T15:13:54.866Z,5.30
2017-10-20T15:16:23.281Z,4.30
2017-10-20T15:18:50.797Z,4.80
2017-10-20T15:21:18.322Z,4.37
2017-10-20T15:23:45.876Z,12.37
2017-10-20T15:26:13.411Z,5.50
2017-10-20T15:28:40.975Z,4.40
2017-10-20T15:31:08.514Z,4.97
2017-10-20T15:33:36.068Z,6.13
2017-10-20T15:36:03.568Z,4.97
2017-10-20T15:38:31.076Z,4.50
2017-10-20T15:40:59.408Z,4.73
2017-10-20T15:43:27.043Z,4.30
2017-10-20T15:45:54.613Z,5.00
2017-10-20T15:48:22.114Z,4.07
2017-10-20T15:50:49.637Z,7.50
2017-10-20T15:53:17.210Z,6.43
2017-10-20T15:55:44.829Z,3.80
2017-10-20T15:58:12.388Z,4.10
2017-10-20T16:00:39.910Z,6.13
2017-10-20T16:03:08.225Z,5.70
2017-10-20T16:05:36.136Z,8.13
2017-10-20T16:08:03.724Z,6.80
2017-10-20T16:10:31.996Z,6.93
2017-10-20T16:12:59.618Z,17.23
2017-10-20T16:15:27.220Z,11.07
2017-10-20T16:17:54.776Z,6.60
2017-10-20T16:20:23.031Z,6.87
2017-10-20T16:22:50.520Z,5.60
2017-10-20T16:25:18.062Z,6.10
2017-10-20T16:27:45.556Z,10.60
2017-10-20T16:30:13.075Z,6.60
2017-10-20T16:32:40.674Z,5.80
2017-10-20T16:35:08.203Z,5.17
2017-10-20T16:37:36.490Z,7.10
2017-10-20T16:40:04.052Z,5.50
2017-10-20T16:42:32.377Z,5.27
2017-10-20T16:44:59.895Z,5.83
2017-10-20T16:47:27.404Z,6.30
2017-10-20T16:49:54.953Z,5.50
2017-10-20T16:52:22.456Z,5.47
2017-10-20T16:54:50.015Z,6.10
2017-10-20T16:57:18.278Z,9.23
2017-10-20T16:59:45.799Z,5.57
2017-10-20T17:02:13.346Z,5.90
2017-10-20T17:04:40.847Z,5.67
2017-10-20T17:07:08.352Z,6.27
2017-10-20T17:09:35.893Z,5.93
2017-10-20T17:12:04.217Z,6.17
2017-10-20T17:14:31.730Z,6.80
2017-10-20T17:16:59.560Z,6.57
2017-10-20T17:19:27.081Z,7.20
2017-10-20T17:21:54.586Z,9.17
2017-10-20T17:24:22.137Z,6.23
2017-10-20T17:26:49.658Z,7.07
2017-10-20T17:29:17.161Z,6.30
2017-10-20T17:31:44.790Z,6.87
2017-10-20T17:34:12.305Z,6.87
2017-10-20T17:36:39.844Z,6.77
2017-10-20T17:39:07.354Z,6.43
2017-10-20T17:41:34.925Z,6.67
2017-10-20T17:44:02.460Z,6.10
2017-10-20T17:46:30.695Z,5.87
2017-10-20T17:48:58.205Z,10.00
2017-10-20T17:51:25.813Z,6.40
2017-10-20T17:53:53.323Z,9.10
2017-10-20T17:56:20.851Z,6.97
2017-10-20T17:58:49.149Z,16.93
2017-10-20T18:01:16.668Z,7.07
2017-10-20T18:03:44.245Z,6.40
2017-10-20T18:06:11.756Z,7.30
2017-10-20T18:08:39.281Z,8.30
2017-10-20T18:11:06.973Z,7.57
2017-10-20T18:13:34.477Z,8.40
2017-10-20T18:16:01.996Z,7.20
2017-10-20T18:18:29.545Z,7.70
2017-10-20T18:20:57.092Z,7.27
2017-10-20T18:23:24.609Z,9.83
2017-10-20T18:25:52.158Z,9.20
2017-10-20T18:28:19.710Z,9.13
2017-10-20T18:30:47.266Z,8.93
2017-10-20T18:33:14.826Z,8.63
2017-10-20T18:35:42.367Z,6.83
2017-10-20T18:38:09.931Z,6.60
2017-10-20T18:40:37.576Z,8.03
2017-10-20T18:43:05.174Z,5.90
2017-10-20T18:45:33.478Z,6.43
2017-10-20T18:48:01.816Z,6.77
2017-10-20T18:50:29.348Z,7.10
2017-10-20T18:52:56.865Z,8.77
2017-10-20T18:55:25.428Z,8.53
2017-10-20T18:57:53.032Z,9.20
2017-10-20T19:00:20.568Z,11.43
2017-10-20T19:02:48.880Z,8.50
2017-10-20T19:05:16.409Z,8.93
2017-10-20T19:07:44.692Z,9.20
2017-10-20T19:10:12.309Z,10.57
2017-10-20T19:12:39.900Z,8.20
2017-10-20T19:15:07.432Z,17.50
2017-10-20T19:17:34.945Z,8.30
2017-10-20T19:20:02.477Z,7.43
2017-10-20T19:22:30.789Z,8.03
2017-10-20T19:24:58.337Z,8.17
2017-10-20T19:27:25.874Z,8.87
2017-10-20T19:29:53.400Z,9.70
2017-10-20T19:32:20.948Z,8.90
2017-10-20T19:34:48.929Z,7.67
2017-10-20T19:37:16.443Z,6.70
2017-10-20T19:39:43.948Z,10.10
2017-10-20T19:42:11.480Z,7.70
2017-10-20T19:44:39.057Z,7.53
2017-10-20T19:47:06.568Z,7.03
2017-10-20T19:49:34.090Z,6.40
2017-10-20T19:52:01.645Z,7.30
2017-10-20T19:54:29.151Z,9.23
2017-10-20T19:56:56.692Z,7.67
2017-10-20T19:59:24.211Z,8.30
2017-10-20T20:01:51.742Z,8.37
2017-10-20T20:04:19.368Z,8.40
2017-10-20T20:06:46.897Z,7.00
2017-10-20T20:09:14.471Z,7.40
2017-10-20T20:11:42.020Z,8.07
2017-10-20T20:14:09.552Z,8.47
2017-10-20T20:16:37.076Z,8.37
2017-10-20T20:19:04.621Z,6.47
2017-10-20T20:21:32.125Z,9.03
2017-10-20T20:23:59.620Z,7.93
2017-10-20T20:26:27.296Z,9.40
2017-10-20T20:28:54.841Z,7.83
2017-10-20T20:31:23.184Z,11.40
2017-10-20T20:33:51.645Z,8.10
2017-10-20T20:36:19.288Z,9.03
2017-10-20T20:38:48.132Z,7.00
2017-10-20T20:41:15.662Z,8.00
2017-10-20T20:43:43.173Z,5.87
2017-10-20T20:46:10.715Z,6.40
2017-10-20T20:48:38.224Z,6.70
2017-10-20T20:51:05.723Z,9.10
2017-10-20T20:53:33.304Z,9.07
2017-10-20T20:56:00.801Z,6.60
2017-10-20T20:58:28.317Z,7.57
2017-10-20T21:00:55.846Z,8.37
2017-10-20T21:03:23.390Z,5.93
2017-10-20T21:05:50.921Z,6.80
2017-10-20T21:08:18.474Z,6.23
2017-10-20T21:10:46.013Z,10.53
2017-10-20T21:13:13.513Z,7.23
2017-10-20T21:15:41.025Z,6.83
2017-10-20T21:18:08.575Z,6.63
2017-10-20T21:20:36.147Z,5.87
2017-10-20T21:23:03.701Z,5.60
2017-10-20T21:25:31.234Z,10.63
2017-10-20T21:27:58.830Z,7.33
2017-10-20T21:30:26.345Z,6.93
2017-10-20T21:32:53.905Z,6.13
2017-10-20T21:35:21.407Z,6.83
2017-10-20T21:37:49.041Z,7.10
2017-10-20T21:40:16.530Z,6.17
2017-10-20T21:42:44.809Z,6.03
2017-10-20T21:45:13.105Z,12.63
2017-10-20T21:47:40.686Z,7.00
2017-10-20T21:50:08.248Z,6.97
2017-10-20T21:52:35.800Z,14.00
2017-10-20T21:55:03.363Z,8.73
2017-10-20T21:57:30.874Z,15.60
2017-10-20T21:59:58.432Z,10.37
2017-10-20T22:02:25.925Z,7.50
2017-10-20T22:04:53.424Z,8.70
2017-10-20T22:07:20.973Z,7.70
2017-10-20T22:09:48.721Z,9.67
2017-10-20T22:12:16.237Z,8.10
2017-10-20T22:14:44.552Z,9.70
2017-10-20T22:17:12.086Z,9.87
2017-10-20T22:19:39.585Z,9.10
2017-10-20T22:22:07.108Z,9.83
2017-10-20T22:24:34.602Z,9.30
2017-10-20T22:27:02.174Z,13.67
2017-10-20T22:29:29.676Z,9.60
2017-10-20T22:31:57.223Z,8.03
2017-10-20T22:34:24.725Z,8.93
2017-10-20T22:36:52.301Z,10.70
2017-10-20T22:39:19.812Z,9.20
2017-10-20T22:41:47.355Z,14.03
2017-10-20T22:44:14.916Z,8.53
2017-10-20T22:46:42.444Z,8.10
2017-10-20T22:49:09.961Z,10.27
2017-10-20T22:51:37.496Z,9.93
2017-10-20T22:54:05.046Z,8.93
2017-10-20T22:56:32.604Z,8.80
2017-10-20T22:59:00.149Z,9.70
2017-10-20T23:01:27.743Z,11.10
2017-10-20T23:03:56.069Z,8.97
2017-10-20T23:06:23.587Z,11.10
2017-10-20T23:08:51.902Z,17.57
2017-10-20T23:11:19.441Z,8.27
2017-10-20T23:13:47.001Z,11.53
2017-10-20T23:16:14.511Z,7.40
2017-10-20T23:18:42.059Z,6.97
2017-10-20T23:21:09.558Z,8.83
2017-10-20T23:23:37.865Z,8.00
2017-10-20T23:26:05.461Z,7.43
2017-10-20T23:28:33.001Z,7.60
2017-10-20T23:31:00.605Z,8.27
2017-10-20T23:33:28.893Z,8.60
2017-10-20T23:35:56.469Z,8.73
2017-10-20T23:38:23.974Z,9.57
2017-10-20T23:40:51.544Z,9.03
2017-10-20T23:43:19.157Z,8.70
2017-10-20T23:45:46.696Z,7.93
2017-10-20T23:48:14.246Z,7.33
2017-10-20T23:50:42.516Z,9.83
2017-10-20T23:53:10.845Z,8.00
2017-10-20T23:55:38.383Z,9.57
2017-10-20T23:58:05.963Z,8.50
